logo
Search for airport 
image banner adimage banner adimage banner ad
image banner ad

EDAU - Riesa-Goehlis

Located in Riesa, Germany

ICAO - EDAU, IATA - IES

Data provided by Airmate  

General information

Coordinates: N51°17'35" E13°21'26"
Elevation is 322 feet MSL.
 
View others Airports in Saxony

Operational data

Special qualification required
Current time UTC:
Current local time:
Weather at : EDDC - Dresden ( 34 km )
METAR: EDDC 220150Z AUTO 17005KT 130V230 9999 -RA NSC 17/16 Q1010
TAF: TAF EDDC 212300Z 2200/2224 21008KT 9999 SCT030 TEMPO 2200/2215 23015G25KT PROB30 TEMPO 2200/2206 RA BECMG 2216/2218 28005KT
View NOTAMs / SUP AIP / TFR affecting this airport [VIEW]
Communications frequencies: [VIEW]

Runways:

RWY identifierQFULength (ft)Width (ft)SurfaceLDA (ft)
12120°328175ASPH3281
30300°328175ASPH3281
12G120°196998GRASS1969
30G300°196998GRASS1969

Airport contact information

Address: Riesa Germany

Satellite view of EDAU